sensor_id;sensor_type;location;lat;lon;timestamp;P1;durP1;ratioP1;P2;durP2;ratioP2
52434;SDS011;38354;52.892;6.148;2022-11-14T04:00:23;95.95;;;38.33;;
52434;SDS011;38354;52.892;6.148;2022-11-14T04:02:52;94.30;;;38.05;;
52434;SDS011;38354;52.892;6.148;2022-11-14T04:05:19;87.45;;;37.65;;
52434;SDS011;38354;52.892;6.148;2022-11-14T04:07:45;93.05;;;38.75;;
52434;SDS011;38354;52.892;6.148;2022-11-14T04:10:10;94.28;;;37.65;;
52434;SDS011;38354;52.892;6.148;2022-11-14T04:12:36;90.22;;;37.80;;
52434;SDS011;38354;52.892;6.148;2022-11-14T04:15:02;99.65;;;39.42;;
52434;SDS011;38354;52.892;6.148;2022-11-14T04:17:28;93.18;;;39.28;;
52434;SDS011;38354;52.892;6.148;2022-11-14T04:19:54;96.70;;;40.30;;
52434;SDS011;38354;52.892;6.148;2022-11-14T04:22:19;97.97;;;39.03;;
52434;SDS011;38354;52.892;6.148;2022-11-14T04:24:45;97.18;;;39.28;;
52434;SDS011;38354;52.892;6.148;2022-11-14T04:27:11;94.53;;;39.35;;
52434;SDS011;38354;52.892;6.148;2022-11-14T04:29:36;97.03;;;38.63;;
52434;SDS011;38354;52.892;6.148;2022-11-14T04:32:02;94.25;;;40.40;;
52434;SDS011;38354;52.892;6.148;2022-11-14T04:34:27;96.22;;;39.83;;
52434;SDS011;38354;52.892;6.148;2022-11-14T04:36:53;99.53;;;40.13;;
52434;SDS011;38354;52.892;6.148;2022-11-14T04:39:19;97.40;;;40.45;;
52434;SDS011;38354;52.892;6.148;2022-11-14T04:41:44;95.68;;;40.50;;
52434;SDS011;38354;52.892;6.148;2022-11-14T04:44:10;102.20;;;43.40;;
52434;SDS011;38354;52.892;6.148;2022-11-14T04:46:35;105.88;;;43.20;;
52434;SDS011;38354;52.892;6.148;2022-11-14T04:49:01;96.10;;;40.28;;
52434;SDS011;38354;52.892;6.148;2022-11-14T04:51:27;109.55;;;44.53;;
52434;SDS011;38354;52.892;6.148;2022-11-14T04:53:52;98.45;;;41.92;;
52434;SDS011;38354;52.892;6.148;2022-11-14T04:56:18;104.53;;;42.30;;
52434;SDS011;38354;52.892;6.148;2022-11-14T04:58:47;108.35;;;43.13;;
52434;SDS011;38354;52.892;6.148;2022-11-14T05:01:13;105.13;;;43.72;;
52434;SDS011;38354;52.892;6.148;2022-11-14T05:03:40;104.28;;;44.45;;
52434;SDS011;38354;52.892;6.148;2022-11-14T05:06:06;105.93;;;43.25;;
52434;SDS011;38354;52.892;6.148;2022-11-14T05:08:32;108.47;;;42.90;;
52434;SDS011;38354;52.892;6.148;2022-11-14T05:10:58;104.32;;;43.63;;
52434;SDS011;38354;52.892;6.148;2022-11-14T05:13:23;104.53;;;43.10;;
52434;SDS011;38354;52.892;6.148;2022-11-14T05:15:49;106.13;;;42.13;;
52434;SDS011;38354;52.892;6.148;2022-11-14T05:18:15;98.30;;;40.97;;
52434;SDS011;38354;52.892;6.148;2022-11-14T05:20:40;101.72;;;41.78;;
52434;SDS011;38354;52.892;6.148;2022-11-14T05:23:06;104.60;;;42.05;;
52434;SDS011;38354;52.892;6.148;2022-11-14T05:25:40;103.85;;;42.90;;
52434;SDS011;38354;52.892;6.148;2022-11-14T05:28:06;103.75;;;41.70;;
52434;SDS011;38354;52.892;6.148;2022-11-14T05:30:31;97.07;;;41.03;;
52434;SDS011;38354;52.892;6.148;2022-11-14T05:32:57;95.88;;;38.13;;
52434;SDS011;38354;52.892;6.148;2022-11-14T05:35:22;98.80;;;40.50;;
52434;SDS011;38354;52.892;6.148;2022-11-14T05:37:48;94.72;;;39.97;;
52434;SDS011;38354;52.892;6.148;2022-11-14T05:40:14;101.82;;;41.03;;
52434;SDS011;38354;52.892;6.148;2022-11-14T05:42:41;101.45;;;40.58;;
52434;SDS011;38354;52.892;6.148;2022-11-14T05:45:06;96.38;;;39.53;;
52434;SDS011;38354;52.892;6.148;2022-11-14T05:47:33;100.50;;;39.92;;
52434;SDS011;38354;52.892;6.148;2022-11-14T05:49:58;103.60;;;40.97;;
52434;SDS011;38354;52.892;6.148;2022-11-14T05:52:24;101.00;;;40.33;;
52434;SDS011;38354;52.892;6.148;2022-11-14T05:54:49;103.78;;;42.22;;
52434;SDS011;38354;52.892;6.148;2022-11-14T05:57:15;96.35;;;38.75;;
52434;SDS011;38354;52.892;6.148;2022-11-14T05:59:41;96.40;;;39.28;;
52434;SDS011;38354;52.892;6.148;2022-11-14T06:02:06;98.00;;;40.22;;
52434;SDS011;38354;52.892;6.148;2022-11-14T06:04:32;98.90;;;39.20;;
52434;SDS011;38354;52.892;6.148;2022-11-14T06:06:57;97.78;;;40.17;;
52434;SDS011;38354;52.892;6.148;2022-11-14T06:09:23;92.43;;;37.92;;
52434;SDS011;38354;52.892;6.148;2022-11-14T06:11:52;93.57;;;38.05;;
52434;SDS011;38354;52.892;6.148;2022-11-14T06:14:17;96.80;;;39.92;;
52434;SDS011;38354;52.892;6.148;2022-11-14T06:16:43;98.35;;;40.03;;
52434;SDS011;38354;52.892;6.148;2022-11-14T06:19:08;99.00;;;40.03;;
52434;SDS011;38354;52.892;6.148;2022-11-14T06:21:34;99.80;;;39.50;;
52434;SDS011;38354;52.892;6.148;2022-11-14T06:24:00;97.07;;;39.75;;
52434;SDS011;38354;52.892;6.148;2022-11-14T06:26:26;96.78;;;39.35;;
52434;SDS011;38354;52.892;6.148;2022-11-14T06:28:56;92.20;;;38.42;;
52434;SDS011;38354;52.892;6.148;2022-11-14T06:31:23;86.30;;;37.20;;
52434;SDS011;38354;52.892;6.148;2022-11-14T06:33:49;91.97;;;38.50;;
52434;SDS011;38354;52.892;6.148;2022-11-14T06:36:15;99.00;;;38.67;;
52434;SDS011;38354;52.892;6.148;2022-11-14T06:38:41;93.07;;;37.70;;
52434;SDS011;38354;52.892;6.148;2022-11-14T06:41:18;97.07;;;39.13;;
52434;SDS011;38354;52.892;6.148;2022-11-14T06:43:46;96.90;;;39.35;;
52434;SDS011;38354;52.892;6.148;2022-11-14T06:46:14;96.70;;;40.95;;
52434;SDS011;38354;52.892;6.148;2022-11-14T06:48:42;99.32;;;40.17;;
52434;SDS011;38354;52.892;6.148;2022-11-14T06:51:09;99.82;;;40.55;;
52434;SDS011;38354;52.892;6.148;2022-11-14T06:53:35;93.78;;;39.63;;
52434;SDS011;38354;52.892;6.148;2022-11-14T06:56:02;99.18;;;40.35;;
52434;SDS011;38354;52.892;6.148;2022-11-14T06:58:31;94.15;;;38.85;;
52434;SDS011;38354;52.892;6.148;2022-11-14T07:01:05;94.18;;;39.65;;
52434;SDS011;38354;52.892;6.148;2022-11-14T07:08:25;90.63;;;36.15;;
52434;SDS011;38354;52.892;6.148;2022-11-14T07:10:51;101.97;;;39.30;;
52434;SDS011;38354;52.892;6.148;2022-11-14T07:13:17;106.65;;;41.17;;
52434;SDS011;38354;52.892;6.148;2022-11-14T07:15:52;97.38;;;38.97;;
52434;SDS011;38354;52.892;6.148;2022-11-14T07:20:45;105.95;;;40.78;;
52434;SDS011;38354;52.892;6.148;2022-11-14T07:23:11;94.85;;;37.90;;
52434;SDS011;38354;52.892;6.148;2022-11-14T07:25:36;97.70;;;38.92;;
52434;SDS011;38354;52.892;6.148;2022-11-14T07:28:02;96.15;;;38.95;;
52434;SDS011;38354;52.892;6.148;2022-11-14T07:30:28;112.20;;;41.22;;
52434;SDS011;38354;52.892;6.148;2022-11-14T07:32:56;100.35;;;40.55;;
52434;SDS011;38354;52.892;6.148;2022-11-14T07:35:22;103.25;;;39.33;;
52434;SDS011;38354;52.892;6.148;2022-11-14T07:37:49;98.65;;;41.10;;
52434;SDS011;38354;52.892;6.148;2022-11-14T07:40:15;104.22;;;39.92;;
52434;SDS011;38354;52.892;6.148;2022-11-14T07:42:41;101.38;;;40.70;;
52434;SDS011;38354;52.892;6.148;2022-11-14T07:45:07;100.63;;;40.15;;
52434;SDS011;38354;52.892;6.148;2022-11-14T07:47:33;101.30;;;38.95;;
52434;SDS011;38354;52.892;6.148;2022-11-14T07:49:58;105.15;;;41.22;;
52434;SDS011;38354;52.892;6.148;2022-11-14T07:52:24;101.72;;;39.88;;
52434;SDS011;38354;52.892;6.148;2022-11-14T07:54:50;98.10;;;37.58;;
52434;SDS011;38354;52.892;6.148;2022-11-14T07:57:16;92.60;;;38.00;;
52434;SDS011;38354;52.892;6.148;2022-11-14T07:59:41;101.50;;;38.95;;
52434;SDS011;38354;52.892;6.148;2022-11-14T08:02:13;98.78;;;39.65;;
52434;SDS011;38354;52.892;6.148;2022-11-14T08:04:40;97.97;;;38.63;;
52434;SDS011;38354;52.892;6.148;2022-11-14T08:07:06;97.30;;;38.90;;
52434;SDS011;38354;52.892;6.148;2022-11-14T08:09:32;97.68;;;37.83;;
52434;SDS011;38354;52.892;6.148;2022-11-14T08:11:57;92.97;;;37.35;;
52434;SDS011;38354;52.892;6.148;2022-11-14T08:14:23;100.93;;;38.70;;
52434;SDS011;38354;52.892;6.148;2022-11-14T08:16:49;102.57;;;39.75;;
52434;SDS011;38354;52.892;6.148;2022-11-14T08:19:14;92.68;;;38.25;;
52434;SDS011;38354;52.892;6.148;2022-11-14T08:21:41;99.70;;;38.53;;
52434;SDS011;38354;52.892;6.148;2022-11-14T08:24:07;101.30;;;38.92;;
52434;SDS011;38354;52.892;6.148;2022-11-14T08:26:32;98.68;;;37.63;;
52434;SDS011;38354;52.892;6.148;2022-11-14T08:28:58;99.15;;;38.90;;
52434;SDS011;38354;52.892;6.148;2022-11-14T08:31:24;98.30;;;38.28;;
52434;SDS011;38354;52.892;6.148;2022-11-14T08:33:50;89.38;;;38.30;;
52434;SDS011;38354;52.892;6.148;2022-11-14T08:36:17;92.85;;;37.83;;
52434;SDS011;38354;52.892;6.148;2022-11-14T08:38:42;95.25;;;38.13;;
52434;SDS011;38354;52.892;6.148;2022-11-14T08:41:08;92.90;;;36.63;;
52434;SDS011;38354;52.892;6.148;2022-11-14T08:43:34;94.20;;;37.53;;
52434;SDS011;38354;52.892;6.148;2022-11-14T08:46:00;92.65;;;35.47;;
52434;SDS011;38354;52.892;6.148;2022-11-14T08:48:27;95.35;;;38.40;;
52434;SDS011;38354;52.892;6.148;2022-11-14T08:50:53;98.03;;;38.42;;
52434;SDS011;38354;52.892;6.148;2022-11-14T08:53:18;94.75;;;37.72;;
52434;SDS011;38354;52.892;6.148;2022-11-14T08:55:44;98.60;;;36.95;;
52434;SDS011;38354;52.892;6.148;2022-11-14T08:58:11;92.90;;;37.45;;
52434;SDS011;38354;52.892;6.148;2022-11-14T09:00:37;96.85;;;38.78;;
52434;SDS011;38354;52.892;6.148;2022-11-14T09:03:06;92.50;;;37.35;;
52434;SDS011;38354;52.892;6.148;2022-11-14T09:05:40;93.25;;;38.42;;
52434;SDS011;38354;52.892;6.148;2022-11-14T09:08:06;91.97;;;37.60;;
52434;SDS011;38354;52.892;6.148;2022-11-14T09:10:32;92.85;;;38.28;;
52434;SDS011;38354;52.892;6.148;2022-11-14T09:12:58;85.07;;;36.47;;
52434;SDS011;38354;52.892;6.148;2022-11-14T09:15:28;92.50;;;37.28;;
52434;SDS011;38354;52.892;6.148;2022-11-14T09:17:54;90.38;;;37.63;;
52434;SDS011;38354;52.892;6.148;2022-11-14T09:20:21;84.07;;;36.63;;
52434;SDS011;38354;52.892;6.148;2022-11-14T09:22:48;83.30;;;36.42;;
52434;SDS011;38354;52.892;6.148;2022-11-14T09:25:17;82.55;;;36.40;;
52434;SDS011;38354;52.892;6.148;2022-11-14T09:27:43;82.68;;;35.50;;
52434;SDS011;38354;52.892;6.148;2022-11-14T09:30:09;81.13;;;35.22;;
52434;SDS011;38354;52.892;6.148;2022-11-14T09:32:35;79.60;;;34.55;;
52434;SDS011;38354;52.892;6.148;2022-11-14T09:35:01;85.60;;;35.67;;
52434;SDS011;38354;52.892;6.148;2022-11-14T09:37:27;78.35;;;33.83;;
52434;SDS011;38354;52.892;6.148;2022-11-14T09:39:52;71.10;;;32.85;;
52434;SDS011;38354;52.892;6.148;2022-11-14T09:45:10;74.70;;;34.03;;
52434;SDS011;38354;52.892;6.148;2022-11-14T09:50:21;74.88;;;33.45;;
52434;SDS011;38354;52.892;6.148;2022-11-14T09:52:54;72.05;;;32.88;;
52434;SDS011;38354;52.892;6.148;2022-11-14T09:55:24;67.30;;;31.92;;
52434;SDS011;38354;52.892;6.148;2022-11-14T09:57:54;65.78;;;31.50;;
52434;SDS011;38354;52.892;6.148;2022-11-14T10:00:21;66.15;;;31.90;;
52434;SDS011;38354;52.892;6.148;2022-11-14T10:14:52;63.70;;;30.38;;
52434;SDS011;38354;52.892;6.148;2022-11-14T10:23:09;59.00;;;29.08;;
52434;SDS011;38354;52.892;6.148;2022-11-14T10:33:58;52.35;;;26.38;;
52434;SDS011;38354;52.892;6.148;2022-11-14T10:36:39;54.55;;;26.55;;
52434;SDS011;38354;52.892;6.148;2022-11-14T10:39:34;55.08;;;26.50;;
52434;SDS011;38354;52.892;6.148;2022-11-14T10:42:12;52.70;;;25.92;;
52434;SDS011;38354;52.892;6.148;2022-11-14T10:44:49;52.22;;;25.38;;
52434;SDS011;38354;52.892;6.148;2022-11-14T10:47:29;48.60;;;24.80;;
52434;SDS011;38354;52.892;6.148;2022-11-14T10:50:16;48.90;;;24.77;;
52434;SDS011;38354;52.892;6.148;2022-11-14T10:52:43;52.75;;;26.00;;
52434;SDS011;38354;52.892;6.148;2022-11-14T10:55:15;54.00;;;26.63;;
52434;SDS011;38354;52.892;6.148;2022-11-14T10:57:44;51.35;;;26.92;;
52434;SDS011;38354;52.892;6.148;2022-11-14T11:00:13;49.60;;;26.30;;
52434;SDS011;38354;52.892;6.148;2022-11-14T11:02:51;51.05;;;26.05;;
52434;SDS011;38354;52.892;6.148;2022-11-14T11:05:23;51.30;;;25.88;;
52434;SDS011;38354;52.892;6.148;2022-11-14T11:07:51;47.60;;;26.35;;
52434;SDS011;38354;52.892;6.148;2022-11-14T11:10:38;47.03;;;24.05;;
52434;SDS011;38354;52.892;6.148;2022-11-14T11:15:57;50.30;;;25.83;;
52434;SDS011;38354;52.892;6.148;2022-11-14T11:18:28;53.22;;;26.60;;
52434;SDS011;38354;52.892;6.148;2022-11-14T11:23:33;50.72;;;26.17;;
52434;SDS011;38354;52.892;6.148;2022-11-14T11:26:04;48.53;;;25.80;;
52434;SDS011;38354;52.892;6.148;2022-11-14T11:28:33;49.45;;;26.45;;
52434;SDS011;38354;52.892;6.148;2022-11-14T11:31:02;48.65;;;26.23;;
52434;SDS011;38354;52.892;6.148;2022-11-14T11:33:33;49.28;;;26.25;;
52434;SDS011;38354;52.892;6.148;2022-11-14T11:36:09;49.50;;;25.70;;
52434;SDS011;38354;52.892;6.148;2022-11-14T11:38:38;49.97;;;26.60;;
52434;SDS011;38354;52.892;6.148;2022-11-14T11:41:06;51.58;;;26.60;;
52434;SDS011;38354;52.892;6.148;2022-11-14T11:43:49;48.22;;;25.48;;
52434;SDS011;38354;52.892;6.148;2022-11-14T11:46:37;51.25;;;28.15;;
52434;SDS011;38354;52.892;6.148;2022-11-14T11:57:37;49.13;;;25.45;;
52434;SDS011;38354;52.892;6.148;2022-11-14T12:02:39;47.15;;;25.38;;
52434;SDS011;38354;52.892;6.148;2022-11-14T12:05:11;46.03;;;24.92;;
52434;SDS011;38354;52.892;6.148;2022-11-14T12:07:44;46.45;;;24.33;;
52434;SDS011;38354;52.892;6.148;2022-11-14T12:10:22;48.97;;;25.55;;
52434;SDS011;38354;52.892;6.148;2022-11-14T12:15:58;48.85;;;25.95;;
52434;SDS011;38354;52.892;6.148;2022-11-14T12:29:17;43.63;;;24.85;;
52434;SDS011;38354;52.892;6.148;2022-11-14T12:31:45;41.28;;;23.70;;
52434;SDS011;38354;52.892;6.148;2022-11-14T12:34:24;45.38;;;24.52;;
52434;SDS011;38354;52.892;6.148;2022-11-14T12:36:54;43.47;;;23.85;;
52434;SDS011;38354;52.892;6.148;2022-11-14T12:39:20;42.55;;;24.55;;
52434;SDS011;38354;52.892;6.148;2022-11-14T12:41:59;40.20;;;22.30;;
52434;SDS011;38354;52.892;6.148;2022-11-14T12:47:15;37.60;;;22.20;;
52434;SDS011;38354;52.892;6.148;2022-11-14T12:58:35;37.08;;;20.33;;
52434;SDS011;38354;52.892;6.148;2022-11-14T13:01:18;35.33;;;20.30;;
52434;SDS011;38354;52.892;6.148;2022-11-14T13:03:56;37.42;;;21.15;;
52434;SDS011;38354;52.892;6.148;2022-11-14T13:06:44;36.13;;;21.05;;
52434;SDS011;38354;52.892;6.148;2022-11-14T13:12:45;33.88;;;20.58;;
52434;SDS011;38354;52.892;6.148;2022-11-14T13:15:22;35.67;;;20.48;;
52434;SDS011;38354;52.892;6.148;2022-11-14T13:24:01;36.13;;;20.67;;
52434;SDS011;38354;52.892;6.148;2022-11-14T13:28:56;33.45;;;19.00;;
52434;SDS011;38354;52.892;6.148;2022-11-14T13:36:59;31.92;;;17.58;;
52434;SDS011;38354;52.892;6.148;2022-11-14T13:45:48;29.33;;;17.55;;
52434;SDS011;38354;52.892;6.148;2022-11-14T13:51:29;32.75;;;18.40;;
52434;SDS011;38354;52.892;6.148;2022-11-14T13:53:56;29.52;;;17.70;;
52434;SDS011;38354;52.892;6.148;2022-11-14T14:05:24;29.13;;;17.55;;
52434;SDS011;38354;52.892;6.148;2022-11-14T14:16:20;26.58;;;16.90;;
52434;SDS011;38354;52.892;6.148;2022-11-14T14:19:10;27.55;;;16.45;;
52434;SDS011;38354;52.892;6.148;2022-11-14T14:21:55;30.58;;;16.48;;
52434;SDS011;38354;52.892;6.148;2022-11-14T14:32:23;28.77;;;16.98;;
52434;SDS011;38354;52.892;6.148;2022-11-14T14:38:36;26.75;;;16.85;;
52434;SDS011;38354;52.892;6.148;2022-11-14T14:41:02;30.65;;;17.08;;
52434;SDS011;38354;52.892;6.148;2022-11-14T14:44:04;30.33;;;16.63;;
52434;SDS011;38354;52.892;6.148;2022-11-14T14:46:31;28.05;;;16.80;;
52434;SDS011;38354;52.892;6.148;2022-11-14T14:48:58;28.35;;;17.20;;
52434;SDS011;38354;52.892;6.148;2022-11-14T14:51:30;28.15;;;16.95;;
52434;SDS011;38354;52.892;6.148;2022-11-14T14:53:58;29.50;;;16.85;;
52434;SDS011;38354;52.892;6.148;2022-11-14T14:56:24;29.80;;;18.23;;
52434;SDS011;38354;52.892;6.148;2022-11-14T14:58:50;27.88;;;17.23;;
52434;SDS011;38354;52.892;6.148;2022-11-14T15:01:16;28.80;;;16.50;;
52434;SDS011;38354;52.892;6.148;2022-11-14T15:03:48;26.60;;;16.65;;
52434;SDS011;38354;52.892;6.148;2022-11-14T15:06:31;28.92;;;17.55;;
52434;SDS011;38354;52.892;6.148;2022-11-14T15:09:09;30.73;;;17.23;;
52434;SDS011;38354;52.892;6.148;2022-11-14T15:11:43;31.23;;;17.52;;
52434;SDS011;38354;52.892;6.148;2022-11-14T15:14:12;29.88;;;16.65;;
52434;SDS011;38354;52.892;6.148;2022-11-14T15:16:41;27.70;;;16.55;;
52434;SDS011;38354;52.892;6.148;2022-11-14T15:19:11;28.15;;;15.77;;
52434;SDS011;38354;52.892;6.148;2022-11-14T15:21:39;27.98;;;17.00;;
52434;SDS011;38354;52.892;6.148;2022-11-14T15:26:43;28.80;;;16.67;;
52434;SDS011;38354;52.892;6.148;2022-11-14T15:31:43;25.95;;;15.85;;
52434;SDS011;38354;52.892;6.148;2022-11-14T15:39:39;23.38;;;15.23;;
52434;SDS011;38354;52.892;6.148;2022-11-14T15:44:43;22.85;;;14.88;;
52434;SDS011;38354;52.892;6.148;2022-11-14T15:47:11;27.23;;;16.02;;
52434;SDS011;38354;52.892;6.148;2022-11-14T15:49:49;22.50;;;14.68;;
52434;SDS011;38354;52.892;6.148;2022-11-14T15:52:24;27.10;;;15.98;;
52434;SDS011;38354;52.892;6.148;2022-11-14T15:54:57;20.08;;;14.15;;
52434;SDS011;38354;52.892;6.148;2022-11-14T15:57:23;21.85;;;13.95;;
52434;SDS011;38354;52.892;6.148;2022-11-14T15:59:49;20.35;;;14.30;;
52434;SDS011;38354;52.892;6.148;2022-11-14T16:02:15;20.67;;;13.93;;
52434;SDS011;38354;52.892;6.148;2022-11-14T16:04:43;21.92;;;14.70;;
52434;SDS011;38354;52.892;6.148;2022-11-14T16:07:10;22.45;;;14.73;;
52434;SDS011;38354;52.892;6.148;2022-11-14T16:09:37;21.75;;;14.63;;
52434;SDS011;38354;52.892;6.148;2022-11-14T16:12:02;22.55;;;15.60;;
52434;SDS011;38354;52.892;6.148;2022-11-14T16:14:28;23.95;;;15.77;;
52434;SDS011;38354;52.892;6.148;2022-11-14T16:16:54;21.73;;;15.23;;
52434;SDS011;38354;52.892;6.148;2022-11-14T16:19:19;24.10;;;16.27;;
52434;SDS011;38354;52.892;6.148;2022-11-14T16:21:46;22.83;;;14.88;;
52434;SDS011;38354;52.892;6.148;2022-11-14T16:24:13;23.95;;;15.38;;
52434;SDS011;38354;52.892;6.148;2022-11-14T16:26:41;23.20;;;15.18;;
52434;SDS011;38354;52.892;6.148;2022-11-14T16:29:07;22.75;;;14.48;;
52434;SDS011;38354;52.892;6.148;2022-11-14T16:31:33;23.73;;;14.80;;
52434;SDS011;38354;52.892;6.148;2022-11-14T16:33:59;22.58;;;14.25;;
52434;SDS011;38354;52.892;6.148;2022-11-14T16:36:24;23.55;;;14.50;;
52434;SDS011;38354;52.892;6.148;2022-11-14T16:38:50;21.63;;;14.13;;
52434;SDS011;38354;52.892;6.148;2022-11-14T16:41:16;21.77;;;14.80;;
52434;SDS011;38354;52.892;6.148;2022-11-14T16:43:42;20.35;;;13.23;;
52434;SDS011;38354;52.892;6.148;2022-11-14T16:46:08;20.27;;;13.52;;
52434;SDS011;38354;52.892;6.148;2022-11-14T16:48:35;22.98;;;13.77;;
52434;SDS011;38354;52.892;6.148;2022-11-14T16:51:01;20.70;;;13.32;;
52434;SDS011;38354;52.892;6.148;2022-11-14T16:53:28;19.88;;;13.00;;
52434;SDS011;38354;52.892;6.148;2022-11-14T16:55:54;21.75;;;13.52;;
52434;SDS011;38354;52.892;6.148;2022-11-14T16:58:20;27.02;;;12.88;;
52434;SDS011;38354;52.892;6.148;2022-11-14T17:00:46;20.65;;;13.73;;
52434;SDS011;38354;52.892;6.148;2022-11-14T17:03:12;22.55;;;13.57;;
52434;SDS011;38354;52.892;6.148;2022-11-14T17:05:42;21.92;;;13.15;;
52434;SDS011;38354;52.892;6.148;2022-11-14T17:08:08;20.70;;;13.18;;
52434;SDS011;38354;52.892;6.148;2022-11-14T17:10:38;21.60;;;13.10;;
52434;SDS011;38354;52.892;6.148;2022-11-14T17:13:05;23.35;;;14.27;;
52434;SDS011;38354;52.892;6.148;2022-11-14T17:15:31;20.60;;;12.93;;
52434;SDS011;38354;52.892;6.148;2022-11-14T17:17:56;21.55;;;13.80;;
52434;SDS011;38354;52.892;6.148;2022-11-14T17:20:22;19.95;;;12.93;;
52434;SDS011;38354;52.892;6.148;2022-11-14T17:22:47;20.02;;;12.68;;
52434;SDS011;38354;52.892;6.148;2022-11-14T17:25:13;25.10;;;14.32;;
52434;SDS011;38354;52.892;6.148;2022-11-14T17:27:39;26.52;;;14.10;;
52434;SDS011;38354;52.892;6.148;2022-11-14T17:30:04;21.60;;;13.75;;
52434;SDS011;38354;52.892;6.148;2022-11-14T17:32:31;21.58;;;14.32;;
52434;SDS011;38354;52.892;6.148;2022-11-14T17:34:56;21.60;;;13.73;;
52434;SDS011;38354;52.892;6.148;2022-11-14T17:37:22;21.45;;;13.48;;
52434;SDS011;38354;52.892;6.148;2022-11-14T17:39:47;23.25;;;13.52;;
52434;SDS011;38354;52.892;6.148;2022-11-14T17:42:13;21.80;;;13.20;;
52434;SDS011;38354;52.892;6.148;2022-11-14T17:44:39;22.40;;;13.52;;
52434;SDS011;38354;52.892;6.148;2022-11-14T17:47:04;22.40;;;14.10;;
52434;SDS011;38354;52.892;6.148;2022-11-14T17:49:30;20.90;;;13.48;;
52434;SDS011;38354;52.892;6.148;2022-11-14T17:51:56;23.48;;;14.50;;
52434;SDS011;38354;52.892;6.148;2022-11-14T17:54:21;22.92;;;14.13;;
52434;SDS011;38354;52.892;6.148;2022-11-14T17:56:47;24.50;;;15.15;;
52434;SDS011;38354;52.892;6.148;2022-11-14T17:59:12;25.10;;;14.90;;
52434;SDS011;38354;52.892;6.148;2022-11-14T18:01:38;23.60;;;14.32;;
52434;SDS011;38354;52.892;6.148;2022-11-14T18:04:04;23.02;;;14.48;;
52434;SDS011;38354;52.892;6.148;2022-11-14T18:06:29;23.63;;;14.15;;
52434;SDS011;38354;52.892;6.148;2022-11-14T18:08:55;23.25;;;14.07;;
52434;SDS011;38354;52.892;6.148;2022-11-14T18:11:23;24.95;;;14.68;;
52434;SDS011;38354;52.892;6.148;2022-11-14T18:13:52;26.75;;;15.45;;
52434;SDS011;38354;52.892;6.148;2022-11-14T18:16:19;24.25;;;14.43;;
52434;SDS011;38354;52.892;6.148;2022-11-14T18:18:45;24.65;;;14.70;;
52434;SDS011;38354;52.892;6.148;2022-11-14T18:21:18;25.75;;;14.25;;
52434;SDS011;38354;52.892;6.148;2022-11-14T18:23:55;25.23;;;15.45;;
52434;SDS011;38354;52.892;6.148;2022-11-14T18:26:22;24.02;;;15.55;;
52434;SDS011;38354;52.892;6.148;2022-11-14T18:28:53;23.08;;;14.38;;
52434;SDS011;38354;52.892;6.148;2022-11-14T18:31:19;26.08;;;15.60;;
52434;SDS011;38354;52.892;6.148;2022-11-14T18:33:45;25.38;;;14.93;;
52434;SDS011;38354;52.892;6.148;2022-11-14T18:36:11;22.75;;;14.35;;
52434;SDS011;38354;52.892;6.148;2022-11-14T18:38:37;26.00;;;15.00;;
52434;SDS011;38354;52.892;6.148;2022-11-14T18:41:06;24.40;;;14.95;;
52434;SDS011;38354;52.892;6.148;2022-11-14T18:43:37;26.52;;;15.20;;
52434;SDS011;38354;52.892;6.148;2022-11-14T18:46:13;24.83;;;15.27;;
52434;SDS011;38354;52.892;6.148;2022-11-14T18:48:41;24.95;;;15.20;;
52434;SDS011;38354;52.892;6.148;2022-11-14T18:51:09;24.58;;;15.43;;
52434;SDS011;38354;52.892;6.148;2022-11-14T18:53:46;26.38;;;15.38;;
52434;SDS011;38354;52.892;6.148;2022-11-14T18:56:13;24.60;;;15.90;;
52434;SDS011;38354;52.892;6.148;2022-11-14T18:58:40;24.10;;;14.75;;
52434;SDS011;38354;52.892;6.148;2022-11-14T19:01:07;24.40;;;15.20;;
52434;SDS011;38354;52.892;6.148;2022-11-14T19:03:34;23.00;;;15.18;;
52434;SDS011;38354;52.892;6.148;2022-11-14T19:06:00;22.90;;;14.27;;
52434;SDS011;38354;52.892;6.148;2022-11-14T19:08:27;24.27;;;15.23;;
52434;SDS011;38354;52.892;6.148;2022-11-14T19:10:52;24.58;;;15.65;;
52434;SDS011;38354;52.892;6.148;2022-11-14T19:13:23;24.33;;;15.30;;
52434;SDS011;38354;52.892;6.148;2022-11-14T19:15:49;25.23;;;15.45;;
52434;SDS011;38354;52.892;6.148;2022-11-14T19:18:14;24.67;;;15.07;;
52434;SDS011;38354;52.892;6.148;2022-11-14T19:20:40;26.02;;;15.82;;
52434;SDS011;38354;52.892;6.148;2022-11-14T19:23:06;26.33;;;16.92;;
52434;SDS011;38354;52.892;6.148;2022-11-14T19:25:33;26.58;;;15.93;;
52434;SDS011;38354;52.892;6.148;2022-11-14T19:27:59;27.00;;;16.20;;
52434;SDS011;38354;52.892;6.148;2022-11-14T19:30:24;24.98;;;15.20;;
52434;SDS011;38354;52.892;6.148;2022-11-14T19:32:50;27.55;;;16.20;;
52434;SDS011;38354;52.892;6.148;2022-11-14T19:35:16;25.75;;;16.25;;
52434;SDS011;38354;52.892;6.148;2022-11-14T19:37:41;25.58;;;15.75;;
52434;SDS011;38354;52.892;6.148;2022-11-14T19:40:07;26.30;;;16.10;;
52434;SDS011;38354;52.892;6.148;2022-11-14T19:42:33;26.20;;;16.27;;
52434;SDS011;38354;52.892;6.148;2022-11-14T19:44:59;26.25;;;16.52;;
52434;SDS011;38354;52.892;6.148;2022-11-14T19:47:24;32.40;;;16.67;;
52434;SDS011;38354;52.892;6.148;2022-11-14T19:49:50;27.25;;;16.75;;
52434;SDS011;38354;52.892;6.148;2022-11-14T19:52:16;27.58;;;16.80;;
52434;SDS011;38354;52.892;6.148;2022-11-14T19:54:41;26.92;;;16.80;;
52434;SDS011;38354;52.892;6.148;2022-11-14T19:57:07;30.50;;;15.98;;
52434;SDS011;38354;52.892;6.148;2022-11-14T19:59:35;27.70;;;17.30;;
52434;SDS011;38354;52.892;6.148;2022-11-14T20:02:04;27.17;;;16.55;;
52434;SDS011;38354;52.892;6.148;2022-11-14T20:04:32;29.13;;;17.85;;
52434;SDS011;38354;52.892;6.148;2022-11-14T20:06:58;29.23;;;18.23;;
52434;SDS011;38354;52.892;6.148;2022-11-14T20:09:24;31.00;;;18.25;;
52434;SDS011;38354;52.892;6.148;2022-11-14T20:11:49;27.92;;;17.83;;
52434;SDS011;38354;52.892;6.148;2022-11-14T20:14:15;30.25;;;17.10;;
52434;SDS011;38354;52.892;6.148;2022-11-14T20:16:43;29.52;;;17.63;;
52434;SDS011;38354;52.892;6.148;2022-11-14T20:19:10;32.00;;;17.65;;
52434;SDS011;38354;52.892;6.148;2022-11-14T20:21:37;28.60;;;19.20;;
52434;SDS011;38354;52.892;6.148;2022-11-14T20:24:03;31.33;;;18.58;;
52434;SDS011;38354;52.892;6.148;2022-11-14T20:26:29;31.98;;;19.23;;
52434;SDS011;38354;52.892;6.148;2022-11-14T20:28:54;32.08;;;18.58;;
52434;SDS011;38354;52.892;6.148;2022-11-14T20:31:25;32.83;;;19.33;;
52434;SDS011;38354;52.892;6.148;2022-11-14T20:33:53;29.05;;;18.45;;
52434;SDS011;38354;52.892;6.148;2022-11-14T20:36:19;31.38;;;18.80;;
52434;SDS011;38354;52.892;6.148;2022-11-14T20:38:48;33.50;;;19.48;;
52434;SDS011;38354;52.892;6.148;2022-11-14T20:41:14;34.17;;;19.75;;
52434;SDS011;38354;52.892;6.148;2022-11-14T20:43:41;30.10;;;18.48;;
52434;SDS011;38354;52.892;6.148;2022-11-14T20:48:40;34.55;;;19.05;;
52434;SDS011;38354;52.892;6.148;2022-11-14T20:51:07;34.58;;;19.38;;
52434;SDS011;38354;52.892;6.148;2022-11-14T20:53:34;34.03;;;18.73;;
52434;SDS011;38354;52.892;6.148;2022-11-14T20:56:00;35.65;;;19.17;;
52434;SDS011;38354;52.892;6.148;2022-11-14T20:58:26;32.67;;;19.77;;